Farmington, UT (84025)

6:26 AM MDT on July 25, 2017 (GMT -0600)
Rice Farms | | Change Station

Elev 4263 ft 40.97 °N, 111.89 °W | Updated 12 seconds ago

Rain
Rain
67.1 °F
Feels Like 67.1 °F
N
0.0
Wind Variable Wind from ESE

Today
High -- | Low -- °F
--% Chance of Precip.
Yesterday
High -- | Low -- °F
Precip. -- in
Pressure 29.91 in
Visibility 10.0 miles
Clouds Mostly Cloudy 11000 ft
Mostly Cloudy 14000 ft
Dew Point 58 °F
Humidity 73%
Rainfall 0.02 in
Snow Depth Not available.
6:17 AM 8:50 PM
Waxing Crescent, 6% visible
METAR KHIF 251158Z AUTO 12007KT 10SM BKN110 BKN140 20/15 A3011 RMK AO2 SLP128 60000 T01960150 10264 20196 53004
Pressure 29.91 in
Visibility 10.0 miles
Clouds Mostly Cloudy 11000 ft
Mostly Cloudy 14000 ft
Dew Point 58 °F
Humidity 73%
Rainfall 0.02 in
Snow Depth Not available.
6:17 AM 8:50 PM
Waxing Crescent, 6% visible
METAR KHIF 251158Z AUTO 12007KT 10SM BKN110 BKN140 20/15 A3011 RMK AO2 SLP128 60000 T01960150 10264 20196 53004

Get Severe Weather Alerts

Thanks for signing up!

Be on the lookout for a verification email in your inbox.

You'll start receiving the daily forecast at 6 AM.

×

10-Day Weather Forecast

Almanac

Astronomy

Jul. 25, 2017 Rise Set
Actual Time
Civil Twilight
Nautical Twilight
Astronomical Twilight
Moon
Length of Visible Light
Length of Day
Tomorrow will be .
, % of the Moon is Illuminated

Today's Extremes

State Highs State Lows

Community

WunderPhotos

Category 6

Welcome to Category 6. This is the collective home for Weather Underground's featured writeups by Dr. Jeff Masters (right), Bob Henson (left), Chris Burt, and other regular contributors.

Nearby

Air Quality

  Air Quality AQ Index Pollutant
Not available.

Snow Depth

Station Depth Elevation

Earthquake Activity

City Distance Mag. Time & Date
Minimum magnitude displayed is 2.5.

Coastal Water Temperatures

Place Temperature

Stations

Nearby Weather Stations

Station Location Temp. Windchill Dew Point Humidity Wind Precip. Elev Updated Type
                   

Watches & Warnings

There are currently no watches in effect.